Terminal Aerodrome Forecast
Issued by NWS

Home | Current Version | Previous Version | Text Only | Print | Product List | Glossary On
Versions: 1 2 3 4 5 6 7 8 9 10 11 12 13 14 15 16 17
000
FTAK31 PAFA 260236 AAC
TAFAOT
TAF AMD
PAOT 260236Z 2603/2624 12015KT 4SM -RASN BR VV010
     FM260500 18014KT 1SM -RASN BR OVC010
     FM260900 23012KT P6SM VCSH OVC030
     FM261100 33010KT P6SM BKN050=

USA.gov is the U.S. government's official web portal to all federal, state and local government web resources and services.